Terminal Aerodrome Forecast
Issued by NWS Cleveland, OH

Home | Current Version | Previous Version | Graphics & Text | Print | Product List | Glossary On
Versions: 1 2 3 4 5 6 7 8 9 10 11 12 13 14 15 16 17 18 19 20 21
000
FTUS41 KCLE 211700
TAFCAK
TAF
KCAK 211727Z 2118/2218 27006KT P6SM BKN035
     FM212100 22005KT P6SM SCT040
     FM220100 18007KT P6SM SCT200
     FM221300 19009KT P6SM BKN040 OVC080 PROB30 2213/2215 6SM -FZRA
      OVC025
     FM221500 19011KT 5SM -RA BR BKN025 OVC050=

USA.gov is the U.S. government's official web portal to all federal, state and local government web resources and services.